sensor_id;sensor_type;location;lat;lon;timestamp;P1;durP1;ratioP1;P2;durP2;ratioP2
48423;SDS011;34232;42.502;26.014;2022-10-31T00:00:20;10.13;;;3.35;;
48423;SDS011;34232;42.502;26.014;2022-10-31T00:02:45;10.10;;;5.03;;
48423;SDS011;34232;42.502;26.014;2022-10-31T00:05:10;5.67;;;4.20;;
48423;SDS011;34232;42.502;26.014;2022-10-31T00:07:36;8.20;;;4.13;;
48423;SDS011;34232;42.502;26.014;2022-10-31T00:10:02;10.00;;;4.57;;
48423;SDS011;34232;42.502;26.014;2022-10-31T00:12:27;9.43;;;4.37;;
48423;SDS011;34232;42.502;26.014;2022-10-31T00:14:53;6.90;;;3.93;;
48423;SDS011;34232;42.502;26.014;2022-10-31T00:17:21;7.32;;;3.83;;
48423;SDS011;34232;42.502;26.014;2022-10-31T00:19:46;4.87;;;3.03;;
48423;SDS011;34232;42.502;26.014;2022-10-31T00:22:12;12.63;;;4.40;;
48423;SDS011;34232;42.502;26.014;2022-10-31T00:24:37;8.07;;;4.97;;
48423;SDS011;34232;42.502;26.014;2022-10-31T00:27:02;5.73;;;3.63;;
48423;SDS011;34232;42.502;26.014;2022-10-31T00:29:28;6.43;;;3.83;;
48423;SDS011;34232;42.502;26.014;2022-10-31T00:31:53;7.70;;;3.97;;
48423;SDS011;34232;42.502;26.014;2022-10-31T00:34:18;5.33;;;3.40;;
48423;SDS011;34232;42.502;26.014;2022-10-31T00:36:44;17.13;;;4.00;;
48423;SDS011;34232;42.502;26.014;2022-10-31T00:39:09;11.17;;;4.80;;
48423;SDS011;34232;42.502;26.014;2022-10-31T00:41:35;9.67;;;5.13;;
48423;SDS011;34232;42.502;26.014;2022-10-31T00:44:00;9.80;;;4.13;;
48423;SDS011;34232;42.502;26.014;2022-10-31T00:46:25;7.37;;;3.93;;
48423;SDS011;34232;42.502;26.014;2022-10-31T00:48:51;8.07;;;4.37;;
48423;SDS011;34232;42.502;26.014;2022-10-31T00:51:16;10.50;;;4.70;;
48423;SDS011;34232;42.502;26.014;2022-10-31T00:53:42;6.47;;;4.93;;
48423;SDS011;34232;42.502;26.014;2022-10-31T00:56:07;7.97;;;4.03;;
48423;SDS011;34232;42.502;26.014;2022-10-31T00:58:33;7.23;;;4.23;;
48423;SDS011;34232;42.502;26.014;2022-10-31T01:01:00;7.30;;;4.22;;
48423;SDS011;34232;42.502;26.014;2022-10-31T01:03:30;7.37;;;4.10;;
48423;SDS011;34232;42.502;26.014;2022-10-31T01:08:24;6.75;;;5.03;;
48423;SDS011;34232;42.502;26.014;2022-10-31T01:11:06;7.20;;;3.58;;
48423;SDS011;34232;42.502;26.014;2022-10-31T01:13:36;9.13;;;4.15;;
48423;SDS011;34232;42.502;26.014;2022-10-31T01:16:03;9.07;;;4.43;;
48423;SDS011;34232;42.502;26.014;2022-10-31T01:18:29;11.13;;;4.15;;
48423;SDS011;34232;42.502;26.014;2022-10-31T01:20:59;7.07;;;5.20;;
48423;SDS011;34232;42.502;26.014;2022-10-31T01:23:32;12.93;;;4.47;;
48423;SDS011;34232;42.502;26.014;2022-10-31T01:25:58;10.10;;;4.83;;
48423;SDS011;34232;42.502;26.014;2022-10-31T01:28:25;18.80;;;4.68;;
48423;SDS011;34232;42.502;26.014;2022-10-31T01:30:50;9.87;;;4.20;;
48423;SDS011;34232;42.502;26.014;2022-10-31T01:33:15;7.20;;;4.40;;
48423;SDS011;34232;42.502;26.014;2022-10-31T01:35:41;10.73;;;4.67;;
48423;SDS011;34232;42.502;26.014;2022-10-31T01:38:06;13.10;;;4.93;;
48423;SDS011;34232;42.502;26.014;2022-10-31T01:40:32;7.87;;;4.53;;
48423;SDS011;34232;42.502;26.014;2022-10-31T01:42:59;9.48;;;4.57;;
48423;SDS011;34232;42.502;26.014;2022-10-31T01:45:24;10.87;;;4.53;;
48423;SDS011;34232;42.502;26.014;2022-10-31T01:47:50;20.53;;;6.57;;
48423;SDS011;34232;42.502;26.014;2022-10-31T01:50:26;14.27;;;4.47;;
48423;SDS011;34232;42.502;26.014;2022-10-31T01:52:57;8.10;;;4.25;;
48423;SDS011;34232;42.502;26.014;2022-10-31T01:55:26;8.55;;;4.50;;
48423;SDS011;34232;42.502;26.014;2022-10-31T01:57:56;8.85;;;4.55;;
48423;SDS011;34232;42.502;26.014;2022-10-31T02:00:26;6.45;;;4.40;;
48423;SDS011;34232;42.502;26.014;2022-10-31T02:02:52;10.50;;;4.73;;
48423;SDS011;34232;42.502;26.014;2022-10-31T02:05:21;6.40;;;4.93;;
48423;SDS011;34232;42.502;26.014;2022-10-31T02:10:54;7.88;;;4.60;;
48423;SDS011;34232;42.502;26.014;2022-10-31T02:13:21;6.32;;;4.55;;
48423;SDS011;34232;42.502;26.014;2022-10-31T02:15:49;7.45;;;4.57;;
48423;SDS011;34232;42.502;26.014;2022-10-31T02:18:18;11.80;;;5.50;;
48423;SDS011;34232;42.502;26.014;2022-10-31T02:32:00;6.67;;;4.83;;
48423;SDS011;34232;42.502;26.014;2022-10-31T02:34:58;8.93;;;4.97;;
48423;SDS011;34232;42.502;26.014;2022-10-31T02:37:29;9.20;;;4.40;;
48423;SDS011;34232;42.502;26.014;2022-10-31T02:40:23;9.55;;;5.05;;
48423;SDS011;34232;42.502;26.014;2022-10-31T02:46:09;10.13;;;5.10;;
48423;SDS011;34232;42.502;26.014;2022-10-31T02:48:40;6.72;;;5.57;;
48423;SDS011;34232;42.502;26.014;2022-10-31T02:51:09;8.55;;;4.47;;
48423;SDS011;34232;42.502;26.014;2022-10-31T02:53:36;8.43;;;4.53;;
48423;SDS011;34232;42.502;26.014;2022-10-31T02:58:31;8.82;;;5.07;;
48423;SDS011;34232;42.502;26.014;2022-10-31T03:08:41;8.40;;;3.97;;
48423;SDS011;34232;42.502;26.014;2022-10-31T03:11:15;6.53;;;4.40;;
48423;SDS011;34232;42.502;26.014;2022-10-31T03:16:33;6.90;;;4.60;;
48423;SDS011;34232;42.502;26.014;2022-10-31T03:19:18;7.20;;;3.80;;
48423;SDS011;34232;42.502;26.014;2022-10-31T03:26:57;9.70;;;4.32;;
48423;SDS011;34232;42.502;26.014;2022-10-31T03:29:26;12.13;;;4.60;;
48423;SDS011;34232;42.502;26.014;2022-10-31T03:32:21;8.18;;;5.78;;
48423;SDS011;34232;42.502;26.014;2022-10-31T03:34:49;10.75;;;4.97;;
48423;SDS011;34232;42.502;26.014;2022-10-31T03:37:18;10.68;;;5.25;;
48423;SDS011;34232;42.502;26.014;2022-10-31T03:39:46;12.20;;;4.95;;
48423;SDS011;34232;42.502;26.014;2022-10-31T03:42:14;12.32;;;4.93;;
48423;SDS011;34232;42.502;26.014;2022-10-31T03:44:44;8.35;;;4.28;;
48423;SDS011;34232;42.502;26.014;2022-10-31T03:47:15;10.30;;;4.78;;
48423;SDS011;34232;42.502;26.014;2022-10-31T03:49:40;7.30;;;4.07;;
48423;SDS011;34232;42.502;26.014;2022-10-31T03:54:53;11.68;;;5.75;;
48423;SDS011;34232;42.502;26.014;2022-10-31T03:57:32;11.38;;;5.53;;
48423;SDS011;34232;42.502;26.014;2022-10-31T04:00:11;12.82;;;5.18;;
48423;SDS011;34232;42.502;26.014;2022-10-31T04:02:40;8.68;;;4.97;;
48423;SDS011;34232;42.502;26.014;2022-10-31T04:05:10;9.05;;;5.28;;
48423;SDS011;34232;42.502;26.014;2022-10-31T04:07:38;12.15;;;5.05;;
48423;SDS011;34232;42.502;26.014;2022-10-31T04:10:09;9.75;;;5.05;;
48423;SDS011;34232;42.502;26.014;2022-10-31T04:12:37;7.85;;;4.85;;
48423;SDS011;34232;42.502;26.014;2022-10-31T04:15:04;17.50;;;5.63;;
48423;SDS011;34232;42.502;26.014;2022-10-31T04:17:34;11.07;;;4.57;;
48423;SDS011;34232;42.502;26.014;2022-10-31T04:20:04;7.72;;;4.75;;
48423;SDS011;34232;42.502;26.014;2022-10-31T04:22:31;9.52;;;5.22;;
48423;SDS011;34232;42.502;26.014;2022-10-31T04:24:56;11.27;;;4.90;;
48423;SDS011;34232;42.502;26.014;2022-10-31T04:27:22;8.90;;;5.60;;
48423;SDS011;34232;42.502;26.014;2022-10-31T04:29:47;10.87;;;4.47;;
48423;SDS011;34232;42.502;26.014;2022-10-31T04:32:13;12.20;;;5.07;;
48423;SDS011;34232;42.502;26.014;2022-10-31T04:34:41;7.55;;;4.15;;
48423;SDS011;34232;42.502;26.014;2022-10-31T04:37:06;9.70;;;4.37;;
48423;SDS011;34232;42.502;26.014;2022-10-31T04:39:32;9.90;;;5.33;;
48423;SDS011;34232;42.502;26.014;2022-10-31T04:41:57;17.77;;;5.63;;
48423;SDS011;34232;42.502;26.014;2022-10-31T04:44:23;13.40;;;4.97;;
48423;SDS011;34232;42.502;26.014;2022-10-31T04:46:48;13.68;;;6.47;;
48423;SDS011;34232;42.502;26.014;2022-10-31T04:49:14;9.17;;;5.27;;
48423;SDS011;34232;42.502;26.014;2022-10-31T04:51:39;9.53;;;4.97;;
48423;SDS011;34232;42.502;26.014;2022-10-31T04:54:05;11.40;;;5.27;;
48423;SDS011;34232;42.502;26.014;2022-10-31T04:56:30;17.37;;;5.27;;
48423;SDS011;34232;42.502;26.014;2022-10-31T04:58:55;12.73;;;5.77;;
48423;SDS011;34232;42.502;26.014;2022-10-31T05:01:21;16.97;;;7.00;;
48423;SDS011;34232;42.502;26.014;2022-10-31T05:03:46;12.83;;;6.07;;
48423;SDS011;34232;42.502;26.014;2022-10-31T05:06:12;13.73;;;6.73;;
48423;SDS011;34232;42.502;26.014;2022-10-31T05:08:37;11.73;;;5.37;;
48423;SDS011;34232;42.502;26.014;2022-10-31T05:11:03;17.30;;;5.90;;
48423;SDS011;34232;42.502;26.014;2022-10-31T05:13:29;20.15;;;5.88;;
48423;SDS011;34232;42.502;26.014;2022-10-31T05:15:54;9.37;;;5.27;;
48423;SDS011;34232;42.502;26.014;2022-10-31T05:18:20;11.27;;;5.37;;
48423;SDS011;34232;42.502;26.014;2022-10-31T05:20:45;14.73;;;5.63;;
48423;SDS011;34232;42.502;26.014;2022-10-31T05:23:11;13.03;;;5.17;;
48423;SDS011;34232;42.502;26.014;2022-10-31T05:25:36;15.47;;;4.67;;
48423;SDS011;34232;42.502;26.014;2022-10-31T05:28:02;7.77;;;4.43;;
48423;SDS011;34232;42.502;26.014;2022-10-31T05:30:28;17.87;;;5.73;;
48423;SDS011;34232;42.502;26.014;2022-10-31T05:32:55;13.73;;;5.47;;
48423;SDS011;34232;42.502;26.014;2022-10-31T05:35:22;15.33;;;4.73;;
48423;SDS011;34232;42.502;26.014;2022-10-31T05:37:52;25.17;;;6.35;;
48423;SDS011;34232;42.502;26.014;2022-10-31T05:40:21;24.50;;;6.73;;
48423;SDS011;34232;42.502;26.014;2022-10-31T05:42:47;24.02;;;7.53;;
48423;SDS011;34232;42.502;26.014;2022-10-31T05:45:16;9.70;;;3.83;;
48423;SDS011;34232;42.502;26.014;2022-10-31T05:47:42;12.20;;;4.70;;
48423;SDS011;34232;42.502;26.014;2022-10-31T05:50:18;15.75;;;4.10;;
48423;SDS011;34232;42.502;26.014;2022-10-31T05:52:44;14.88;;;5.72;;
48423;SDS011;34232;42.502;26.014;2022-10-31T05:55:09;20.67;;;5.60;;
48423;SDS011;34232;42.502;26.014;2022-10-31T05:57:34;19.67;;;5.83;;
48423;SDS011;34232;42.502;26.014;2022-10-31T06:00:00;21.93;;;5.63;;
48423;SDS011;34232;42.502;26.014;2022-10-31T06:02:25;6.97;;;4.73;;
48423;SDS011;34232;42.502;26.014;2022-10-31T06:04:51;11.37;;;4.87;;
48423;SDS011;34232;42.502;26.014;2022-10-31T06:07:17;17.27;;;5.67;;
48423;SDS011;34232;42.502;26.014;2022-10-31T06:09:42;16.17;;;4.77;;
48423;SDS011;34232;42.502;26.014;2022-10-31T06:12:08;12.93;;;5.33;;
48423;SDS011;34232;42.502;26.014;2022-10-31T06:14:33;20.87;;;5.63;;
48423;SDS011;34232;42.502;26.014;2022-10-31T06:16:59;28.10;;;6.43;;
48423;SDS011;34232;42.502;26.014;2022-10-31T06:19:24;17.60;;;5.20;;
48423;SDS011;34232;42.502;26.014;2022-10-31T06:21:49;12.73;;;4.73;;
48423;SDS011;34232;42.502;26.014;2022-10-31T06:24:15;10.23;;;4.10;;
48423;SDS011;34232;42.502;26.014;2022-10-31T06:26:40;8.07;;;3.20;;
48423;SDS011;34232;42.502;26.014;2022-10-31T06:29:08;7.45;;;3.50;;
48423;SDS011;34232;42.502;26.014;2022-10-31T06:31:33;6.63;;;4.17;;
48423;SDS011;34232;42.502;26.014;2022-10-31T06:33:59;19.87;;;4.20;;
48423;SDS011;34232;42.502;26.014;2022-10-31T06:36:24;39.50;;;8.40;;
48423;SDS011;34232;42.502;26.014;2022-10-31T06:38:49;27.30;;;5.53;;
48423;SDS011;34232;42.502;26.014;2022-10-31T06:41:15;16.83;;;4.50;;
48423;SDS011;34232;42.502;26.014;2022-10-31T06:43:40;13.57;;;5.07;;
48423;SDS011;34232;42.502;26.014;2022-10-31T06:46:06;21.00;;;5.23;;
48423;SDS011;34232;42.502;26.014;2022-10-31T06:48:31;8.90;;;4.23;;
48423;SDS011;34232;42.502;26.014;2022-10-31T06:51:00;18.20;;;5.18;;
48423;SDS011;34232;42.502;26.014;2022-10-31T06:53:26;22.35;;;5.45;;
48423;SDS011;34232;42.502;26.014;2022-10-31T06:55:55;10.98;;;4.75;;
48423;SDS011;34232;42.502;26.014;2022-10-31T06:58:21;11.63;;;4.70;;
48423;SDS011;34232;42.502;26.014;2022-10-31T07:00:46;36.20;;;5.30;;
48423;SDS011;34232;42.502;26.014;2022-10-31T07:03:12;13.53;;;4.27;;
48423;SDS011;34232;42.502;26.014;2022-10-31T07:08:05;21.08;;;4.68;;
48423;SDS011;34232;42.502;26.014;2022-10-31T07:10:32;11.02;;;3.75;;
48423;SDS011;34232;42.502;26.014;2022-10-31T07:13:00;25.52;;;4.32;;
48423;SDS011;34232;42.502;26.014;2022-10-31T07:15:27;16.40;;;4.22;;
48423;SDS011;34232;42.502;26.014;2022-10-31T07:18:04;15.38;;;3.97;;
48423;SDS011;34232;42.502;26.014;2022-10-31T07:20:32;12.77;;;4.90;;
48423;SDS011;34232;42.502;26.014;2022-10-31T07:22:58;8.90;;;4.35;;
48423;SDS011;34232;42.502;26.014;2022-10-31T07:25:24;13.40;;;4.03;;
48423;SDS011;34232;42.502;26.014;2022-10-31T07:27:49;9.70;;;3.05;;
48423;SDS011;34232;42.502;26.014;2022-10-31T07:30:15;13.48;;;3.60;;
48423;SDS011;34232;42.502;26.014;2022-10-31T07:32:47;16.20;;;1.80;;
48423;SDS011;34232;42.502;26.014;2022-10-31T07:35:16;5.78;;;1.58;;
48423;SDS011;34232;42.502;26.014;2022-10-31T07:37:45;8.68;;;2.00;;
48423;SDS011;34232;42.502;26.014;2022-10-31T07:40:11;2.95;;;1.63;;
48423;SDS011;34232;42.502;26.014;2022-10-31T07:42:41;5.63;;;1.42;;
48423;SDS011;34232;42.502;26.014;2022-10-31T07:45:08;5.85;;;1.65;;
48423;SDS011;34232;42.502;26.014;2022-10-31T07:47:45;5.93;;;1.58;;
48423;SDS011;34232;42.502;26.014;2022-10-31T07:50:24;5.03;;;1.65;;
48423;SDS011;34232;42.502;26.014;2022-10-31T07:52:59;8.10;;;1.90;;
48423;SDS011;34232;42.502;26.014;2022-10-31T07:55:33;7.45;;;2.10;;
48423;SDS011;34232;42.502;26.014;2022-10-31T07:58:04;11.77;;;2.42;;
48423;SDS011;34232;42.502;26.014;2022-10-31T08:00:34;2.58;;;1.15;;
48423;SDS011;34232;42.502;26.014;2022-10-31T08:03:01;4.68;;;1.60;;
48423;SDS011;34232;42.502;26.014;2022-10-31T08:05:28;3.22;;;1.40;;
48423;SDS011;34232;42.502;26.014;2022-10-31T08:07:54;6.28;;;2.08;;
48423;SDS011;34232;42.502;26.014;2022-10-31T08:10:19;6.97;;;1.65;;
48423;SDS011;34232;42.502;26.014;2022-10-31T08:12:45;7.32;;;1.50;;
48423;SDS011;34232;42.502;26.014;2022-10-31T08:15:11;2.47;;;1.73;;
48423;SDS011;34232;42.502;26.014;2022-10-31T08:17:36;4.37;;;2.00;;
48423;SDS011;34232;42.502;26.014;2022-10-31T08:20:03;7.25;;;2.05;;
48423;SDS011;34232;42.502;26.014;2022-10-31T08:22:29;7.97;;;2.13;;
48423;SDS011;34232;42.502;26.014;2022-10-31T08:24:55;4.80;;;1.00;;
48423;SDS011;34232;42.502;26.014;2022-10-31T08:27:20;0.97;;;0.77;;
48423;SDS011;34232;42.502;26.014;2022-10-31T08:29:46;2.53;;;0.77;;
48423;SDS011;34232;42.502;26.014;2022-10-31T08:32:11;3.70;;;1.27;;
48423;SDS011;34232;42.502;26.014;2022-10-31T08:34:37;6.80;;;2.17;;
48423;SDS011;34232;42.502;26.014;2022-10-31T08:37:02;11.07;;;1.87;;
48423;SDS011;34232;42.502;26.014;2022-10-31T08:39:27;3.50;;;1.23;;
48423;SDS011;34232;42.502;26.014;2022-10-31T08:41:53;3.70;;;1.60;;
48423;SDS011;34232;42.502;26.014;2022-10-31T08:44:18;3.97;;;1.27;;
48423;SDS011;34232;42.502;26.014;2022-10-31T08:46:43;3.90;;;1.53;;
48423;SDS011;34232;42.502;26.014;2022-10-31T08:49:09;4.83;;;1.00;;
48423;SDS011;34232;42.502;26.014;2022-10-31T08:51:34;3.90;;;1.23;;
48423;SDS011;34232;42.502;26.014;2022-10-31T08:54:00;1.80;;;1.47;;
48423;SDS011;34232;42.502;26.014;2022-10-31T08:56:25;4.13;;;1.10;;
48423;SDS011;34232;42.502;26.014;2022-10-31T08:58:52;2.37;;;1.10;;
48423;SDS011;34232;42.502;26.014;2022-10-31T09:01:18;2.47;;;0.98;;
48423;SDS011;34232;42.502;26.014;2022-10-31T09:03:43;3.47;;;1.23;;
48423;SDS011;34232;42.502;26.014;2022-10-31T09:06:08;9.10;;;1.20;;
48423;SDS011;34232;42.502;26.014;2022-10-31T09:08:34;4.57;;;1.50;;
48423;SDS011;34232;42.502;26.014;2022-10-31T09:11:00;4.90;;;2.03;;
48423;SDS011;34232;42.502;26.014;2022-10-31T09:13:27;15.00;;;2.10;;
48423;SDS011;34232;42.502;26.014;2022-10-31T09:15:52;24.90;;;3.70;;
48423;SDS011;34232;42.502;26.014;2022-10-31T09:18:19;3.90;;;1.30;;
48423;SDS011;34232;42.502;26.014;2022-10-31T09:20:46;6.55;;;2.47;;
48423;SDS011;34232;42.502;26.014;2022-10-31T09:23:14;7.72;;;1.58;;
48423;SDS011;34232;42.502;26.014;2022-10-31T09:25:46;22.00;;;2.03;;
48423;SDS011;34232;42.502;26.014;2022-10-31T09:28:13;8.15;;;1.27;;
48423;SDS011;34232;42.502;26.014;2022-10-31T09:30:41;4.55;;;2.40;;
48423;SDS011;34232;42.502;26.014;2022-10-31T09:33:08;6.13;;;1.73;;
48423;SDS011;34232;42.502;26.014;2022-10-31T09:35:35;3.42;;;1.60;;
48423;SDS011;34232;42.502;26.014;2022-10-31T09:38:02;5.65;;;1.20;;
48423;SDS011;34232;42.502;26.014;2022-10-31T09:40:39;9.75;;;1.40;;
48423;SDS011;34232;42.502;26.014;2022-10-31T09:46:15;2.75;;;1.83;;
48423;SDS011;34232;42.502;26.014;2022-10-31T09:48:59;8.32;;;2.03;;
48423;SDS011;34232;42.502;26.014;2022-10-31T09:51:35;3.90;;;1.23;;
48423;SDS011;34232;42.502;26.014;2022-10-31T09:54:18;8.23;;;2.28;;
48423;SDS011;34232;42.502;26.014;2022-10-31T09:57:05;4.20;;;0.77;;
48423;SDS011;34232;42.502;26.014;2022-10-31T09:59:38;3.35;;;0.68;;
48423;SDS011;34232;42.502;26.014;2022-10-31T10:02:10;3.45;;;0.80;;
48423;SDS011;34232;42.502;26.014;2022-10-31T10:04:47;11.38;;;1.58;;
48423;SDS011;34232;42.502;26.014;2022-10-31T10:10:18;3.70;;;1.58;;
48423;SDS011;34232;42.502;26.014;2022-10-31T10:20:32;10.90;;;1.58;;
48423;SDS011;34232;42.502;26.014;2022-10-31T10:23:17;1.65;;;0.68;;
48423;SDS011;34232;42.502;26.014;2022-10-31T10:25:47;1.40;;;0.32;;
48423;SDS011;34232;42.502;26.014;2022-10-31T10:28:30;4.75;;;0.70;;
48423;SDS011;34232;42.502;26.014;2022-10-31T10:31:20;21.50;;;1.77;;
48423;SDS011;34232;42.502;26.014;2022-10-31T10:33:55;2.07;;;1.07;;
48423;SDS011;34232;42.502;26.014;2022-10-31T10:36:45;3.90;;;1.30;;
48423;SDS011;34232;42.502;26.014;2022-10-31T10:39:22;3.78;;;0.80;;
48423;SDS011;34232;42.502;26.014;2022-10-31T10:41:51;1.70;;;0.77;;
48423;SDS011;34232;42.502;26.014;2022-10-31T10:44:39;1.45;;;0.90;;
48423;SDS011;34232;42.502;26.014;2022-10-31T10:47:28;0.98;;;0.70;;
48423;SDS011;34232;42.502;26.014;2022-10-31T10:50:24;1.75;;;0.65;;
48423;SDS011;34232;42.502;26.014;2022-10-31T10:58:06;1.65;;;0.73;;
48423;SDS011;34232;42.502;26.014;2022-10-31T11:00:42;4.40;;;0.80;;
48423;SDS011;34232;42.502;26.014;2022-10-31T11:03:14;2.40;;;0.40;;
48423;SDS011;34232;42.502;26.014;2022-10-31T11:05:57;1.10;;;0.68;;
48423;SDS011;34232;42.502;26.014;2022-10-31T11:08:31;3.08;;;0.20;;
48423;SDS011;34232;42.502;26.014;2022-10-31T11:11:08;3.97;;;0.60;;
48423;SDS011;34232;42.502;26.014;2022-10-31T11:14:03;11.32;;;1.45;;
48423;SDS011;34232;42.502;26.014;2022-10-31T11:16:37;2.83;;;0.82;;
48423;SDS011;34232;42.502;26.014;2022-10-31T11:19:08;2.60;;;0.73;;
48423;SDS011;34232;42.502;26.014;2022-10-31T11:26:35;2.53;;;0.30;;
48423;SDS011;34232;42.502;26.014;2022-10-31T11:29:03;0.30;;;0.20;;
48423;SDS011;34232;42.502;26.014;2022-10-31T11:31:30;0.95;;;0.40;;
48423;SDS011;34232;42.502;26.014;2022-10-31T11:34:01;0.80;;;0.20;;
48423;SDS011;34232;42.502;26.014;2022-10-31T11:36:34;3.92;;;0.30;;
48423;SDS011;34232;42.502;26.014;2022-10-31T11:39:04;0.68;;;0.10;;
48423;SDS011;34232;42.502;26.014;2022-10-31T11:41:37;1.30;;;0.25;;
48423;SDS011;34232;42.502;26.014;2022-10-31T11:46:39;0.68;;;0.40;;
48423;SDS011;34232;42.502;26.014;2022-10-31T11:49:26;2.15;;;0.43;;
48423;SDS011;34232;42.502;26.014;2022-10-31T11:51:56;7.05;;;1.58;;
48423;SDS011;34232;42.502;26.014;2022-10-31T11:54:29;1.00;;;0.30;;
48423;SDS011;34232;42.502;26.014;2022-10-31T11:56:57;0.50;;;0.20;;
48423;SDS011;34232;42.502;26.014;2022-10-31T11:59:27;1.10;;;0.30;;
48423;SDS011;34232;42.502;26.014;2022-10-31T12:01:55;1.35;;;0.40;;
48423;SDS011;34232;42.502;26.014;2022-10-31T12:04:34;0.45;;;0.17;;
48423;SDS011;34232;42.502;26.014;2022-10-31T12:07:04;1.92;;;0.38;;
48423;SDS011;34232;42.502;26.014;2022-10-31T12:09:32;13.68;;;1.05;;
48423;SDS011;34232;42.502;26.014;2022-10-31T12:14:37;1.13;;;0.35;;
48423;SDS011;34232;42.502;26.014;2022-10-31T12:17:22;1.27;;;0.40;;
48423;SDS011;34232;42.502;26.014;2022-10-31T12:20:23;2.08;;;0.57;;
48423;SDS011;34232;42.502;26.014;2022-10-31T12:45:59;3.60;;;0.38;;
48423;SDS011;34232;42.502;26.014;2022-10-31T12:51:04;1.98;;;0.40;;
48423;SDS011;34232;42.502;26.014;2022-10-31T12:59:00;1.83;;;0.65;;
48423;SDS011;34232;42.502;26.014;2022-10-31T13:01:34;0.57;;;0.52;;
48423;SDS011;34232;42.502;26.014;2022-10-31T13:06:53;0.70;;;0.40;;
48423;SDS011;34232;42.502;26.014;2022-10-31T13:09:26;2.95;;;0.88;;
48423;SDS011;34232;42.502;26.014;2022-10-31T13:12:01;3.40;;;0.60;;
48423;SDS011;34232;42.502;26.014;2022-10-31T13:14:33;4.28;;;0.32;;
48423;SDS011;34232;42.502;26.014;2022-10-31T13:17:04;2.15;;;0.50;;
48423;SDS011;34232;42.502;26.014;2022-10-31T13:19:33;1.10;;;0.38;;
48423;SDS011;34232;42.502;26.014;2022-10-31T13:22:13;0.70;;;0.20;;
48423;SDS011;34232;42.502;26.014;2022-10-31T13:24:53;0.57;;;0.20;;
48423;SDS011;34232;42.502;26.014;2022-10-31T13:27:26;0.70;;;0.30;;
48423;SDS011;34232;42.502;26.014;2022-10-31T13:30:05;2.97;;;0.68;;
48423;SDS011;34232;42.502;26.014;2022-10-31T13:38:28;3.58;;;0.30;;
48423;SDS011;34232;42.502;26.014;2022-10-31T13:46:49;1.50;;;0.50;;
48423;SDS011;34232;42.502;26.014;2022-10-31T13:54:37;0.93;;;0.20;;
48423;SDS011;34232;42.502;26.014;2022-10-31T13:59:59;4.35;;;1.02;;
48423;SDS011;34232;42.502;26.014;2022-10-31T14:02:34;1.65;;;0.30;;
48423;SDS011;34232;42.502;26.014;2022-10-31T14:07:29;0.55;;;0.32;;
48423;SDS011;34232;42.502;26.014;2022-10-31T14:12:46;1.42;;;0.40;;
48423;SDS011;34232;42.502;26.014;2022-10-31T14:15:26;2.88;;;0.30;;
48423;SDS011;34232;42.502;26.014;2022-10-31T14:17:56;1.63;;;0.55;;
48423;SDS011;34232;42.502;26.014;2022-10-31T14:22:58;4.63;;;0.47;;
48423;SDS011;34232;42.502;26.014;2022-10-31T14:25:34;0.93;;;0.30;;
48423;SDS011;34232;42.502;26.014;2022-10-31T14:28:34;0.55;;;0.20;;
48423;SDS011;34232;42.502;26.014;2022-10-31T14:30:59;5.40;;;0.63;;
48423;SDS011;34232;42.502;26.014;2022-10-31T14:33:29;4.43;;;0.40;;
48423;SDS011;34232;42.502;26.014;2022-10-31T14:39:02;5.38;;;0.50;;
48423;SDS011;34232;42.502;26.014;2022-10-31T14:53:19;11.15;;;1.08;;
48423;SDS011;34232;42.502;26.014;2022-10-31T14:55:51;8.85;;;1.23;;
48423;SDS011;34232;42.502;26.014;2022-10-31T14:58:40;3.75;;;0.95;;
48423;SDS011;34232;42.502;26.014;2022-10-31T15:01:04;6.03;;;0.98;;
48423;SDS011;34232;42.502;26.014;2022-10-31T15:03:35;1.08;;;0.57;;
48423;SDS011;34232;42.502;26.014;2022-10-31T15:06:09;3.33;;;1.60;;
48423;SDS011;34232;42.502;26.014;2022-10-31T15:08:38;2.10;;;0.68;;
48423;SDS011;34232;42.502;26.014;2022-10-31T15:11:21;2.03;;;0.40;;
48423;SDS011;34232;42.502;26.014;2022-10-31T15:13:52;5.28;;;0.60;;
48423;SDS011;34232;42.502;26.014;2022-10-31T15:16:20;2.80;;;0.55;;
48423;SDS011;34232;42.502;26.014;2022-10-31T15:18:56;8.73;;;1.63;;
48423;SDS011;34232;42.502;26.014;2022-10-31T15:21:24;1.42;;;0.90;;
48423;SDS011;34232;42.502;26.014;2022-10-31T15:23:53;11.02;;;3.40;;
48423;SDS011;34232;42.502;26.014;2022-10-31T15:26:22;38.97;;;4.20;;
48423;SDS011;34232;42.502;26.014;2022-10-31T15:28:58;29.88;;;3.30;;
48423;SDS011;34232;42.502;26.014;2022-10-31T15:31:24;23.15;;;3.60;;
48423;SDS011;34232;42.502;26.014;2022-10-31T15:33:50;16.47;;;1.67;;
48423;SDS011;34232;42.502;26.014;2022-10-31T15:36:20;6.57;;;1.77;;
48423;SDS011;34232;42.502;26.014;2022-10-31T15:38:47;26.50;;;5.40;;
48423;SDS011;34232;42.502;26.014;2022-10-31T15:41:22;29.98;;;5.85;;
48423;SDS011;34232;42.502;26.014;2022-10-31T15:43:57;22.67;;;7.00;;
48423;SDS011;34232;42.502;26.014;2022-10-31T15:46:27;19.63;;;7.10;;
48423;SDS011;34232;42.502;26.014;2022-10-31T15:48:52;19.02;;;6.68;;
48423;SDS011;34232;42.502;26.014;2022-10-31T15:51:25;11.40;;;4.53;;
48423;SDS011;34232;42.502;26.014;2022-10-31T15:53:56;9.57;;;3.88;;
48423;SDS011;34232;42.502;26.014;2022-10-31T15:56:24;9.55;;;3.45;;
48423;SDS011;34232;42.502;26.014;2022-10-31T15:58:53;12.60;;;5.55;;
48423;SDS011;34232;42.502;26.014;2022-10-31T16:01:21;12.93;;;3.75;;
48423;SDS011;34232;42.502;26.014;2022-10-31T16:06:37;10.07;;;4.07;;
48423;SDS011;34232;42.502;26.014;2022-10-31T16:09:03;16.20;;;6.57;;
48423;SDS011;34232;42.502;26.014;2022-10-31T16:11:46;31.52;;;10.52;;
48423;SDS011;34232;42.502;26.014;2022-10-31T16:16:43;32.17;;;13.97;;
48423;SDS011;34232;42.502;26.014;2022-10-31T16:19:20;36.72;;;15.30;;
48423;SDS011;34232;42.502;26.014;2022-10-31T16:21:50;31.98;;;12.75;;
48423;SDS011;34232;42.502;26.014;2022-10-31T16:24:25;23.63;;;10.32;;
48423;SDS011;34232;42.502;26.014;2022-10-31T16:27:02;20.15;;;8.35;;
48423;SDS011;34232;42.502;26.014;2022-10-31T16:29:37;17.77;;;7.75;;
48423;SDS011;34232;42.502;26.014;2022-10-31T16:37:36;25.90;;;8.90;;
48423;SDS011;34232;42.502;26.014;2022-10-31T16:40:02;24.92;;;9.82;;
48423;SDS011;34232;42.502;26.014;2022-10-31T16:42:28;20.65;;;8.93;;
48423;SDS011;34232;42.502;26.014;2022-10-31T16:44:53;23.50;;;7.10;;
48423;SDS011;34232;42.502;26.014;2022-10-31T16:47:19;16.63;;;6.73;;
48423;SDS011;34232;42.502;26.014;2022-10-31T16:49:46;27.03;;;7.10;;
48423;SDS011;34232;42.502;26.014;2022-10-31T16:52:13;16.33;;;6.90;;
48423;SDS011;34232;42.502;26.014;2022-10-31T16:54:39;17.40;;;6.63;;
48423;SDS011;34232;42.502;26.014;2022-10-31T16:57:05;15.63;;;5.67;;
48423;SDS011;34232;42.502;26.014;2022-10-31T16:59:40;21.65;;;6.63;;
48423;SDS011;34232;42.502;26.014;2022-10-31T17:02:06;22.10;;;5.32;;
48423;SDS011;34232;42.502;26.014;2022-10-31T17:04:38;20.60;;;6.13;;
48423;SDS011;34232;42.502;26.014;2022-10-31T17:07:04;31.37;;;7.57;;
48423;SDS011;34232;42.502;26.014;2022-10-31T17:09:29;26.67;;;6.90;;
48423;SDS011;34232;42.502;26.014;2022-10-31T17:11:54;29.20;;;6.40;;
48423;SDS011;34232;42.502;26.014;2022-10-31T17:14:20;17.50;;;7.67;;
48423;SDS011;34232;42.502;26.014;2022-10-31T17:16:46;27.63;;;7.07;;
48423;SDS011;34232;42.502;26.014;2022-10-31T17:19:11;25.67;;;7.30;;
48423;SDS011;34232;42.502;26.014;2022-10-31T17:21:37;17.98;;;6.82;;